sensor_id;sensor_type;location;lat;lon;timestamp;temperature;humidity
13998;DHT22;7074;51.508;7.018;2023-05-08T00:00:44;17.80;99.90
13998;DHT22;7074;51.508;7.018;2023-05-08T00:03:11;17.70;99.90
13998;DHT22;7074;51.508;7.018;2023-05-08T00:05:40;17.70;99.90
13998;DHT22;7074;51.508;7.018;2023-05-08T00:08:07;17.70;99.90
13998;DHT22;7074;51.508;7.018;2023-05-08T00:10:34;17.60;99.90
13998;DHT22;7074;51.508;7.018;2023-05-08T00:13:02;17.50;99.90
13998;DHT22;7074;51.508;7.018;2023-05-08T00:15:29;17.50;99.90
13998;DHT22;7074;51.508;7.018;2023-05-08T00:17:57;17.50;99.90
13998;DHT22;7074;51.508;7.018;2023-05-08T00:20:25;17.50;99.90
13998;DHT22;7074;51.508;7.018;2023-05-08T00:22:52;17.50;99.90
13998;DHT22;7074;51.508;7.018;2023-05-08T00:25:19;17.40;99.90
13998;DHT22;7074;51.508;7.018;2023-05-08T00:27:46;17.40;99.90
13998;DHT22;7074;51.508;7.018;2023-05-08T00:30:14;17.50;99.90
13998;DHT22;7074;51.508;7.018;2023-05-08T00:32:41;17.50;99.90
13998;DHT22;7074;51.508;7.018;2023-05-08T00:35:10;17.50;99.90
13998;DHT22;7074;51.508;7.018;2023-05-08T00:37:37;17.50;99.90
13998;DHT22;7074;51.508;7.018;2023-05-08T00:40:07;17.50;99.90
13998;DHT22;7074;51.508;7.018;2023-05-08T00:42:34;17.40;99.90
13998;DHT22;7074;51.508;7.018;2023-05-08T00:45:02;17.40;99.90
13998;DHT22;7074;51.508;7.018;2023-05-08T00:47:30;17.40;99.90
13998;DHT22;7074;51.508;7.018;2023-05-08T00:49:58;17.30;99.90
13998;DHT22;7074;51.508;7.018;2023-05-08T00:52:27;17.40;99.90
13998;DHT22;7074;51.508;7.018;2023-05-08T00:54:55;17.40;99.90
13998;DHT22;7074;51.508;7.018;2023-05-08T00:57:23;17.40;99.90
13998;DHT22;7074;51.508;7.018;2023-05-08T00:59:51;17.30;99.90
13998;DHT22;7074;51.508;7.018;2023-05-08T01:02:19;17.30;99.90
13998;DHT22;7074;51.508;7.018;2023-05-08T01:04:47;17.30;99.90
13998;DHT22;7074;51.508;7.018;2023-05-08T01:07:16;17.30;99.90
13998;DHT22;7074;51.508;7.018;2023-05-08T01:09:45;17.20;99.90
13998;DHT22;7074;51.508;7.018;2023-05-08T01:12:25;17.20;99.90
13998;DHT22;7074;51.508;7.018;2023-05-08T01:15:05;17.20;99.90
13998;DHT22;7074;51.508;7.018;2023-05-08T01:17:42;17.20;99.90
13998;DHT22;7074;51.508;7.018;2023-05-08T01:20:29;17.10;99.90
13998;DHT22;7074;51.508;7.018;2023-05-08T01:26:19;17.00;99.90
13998;DHT22;7074;51.508;7.018;2023-05-08T01:29:13;17.00;99.90
13998;DHT22;7074;51.508;7.018;2023-05-08T01:32:00;17.00;99.90
13998;DHT22;7074;51.508;7.018;2023-05-08T01:34:31;17.00;99.90
13998;DHT22;7074;51.508;7.018;2023-05-08T01:37:01;17.00;99.90
13998;DHT22;7074;51.508;7.018;2023-05-08T01:39:46;17.00;99.90
13998;DHT22;7074;51.508;7.018;2023-05-08T01:42:21;17.00;99.90
13998;DHT22;7074;51.508;7.018;2023-05-08T01:44:53;17.00;99.90
13998;DHT22;7074;51.508;7.018;2023-05-08T01:47:26;16.90;99.90
13998;DHT22;7074;51.508;7.018;2023-05-08T01:50:00;16.90;99.90
13998;DHT22;7074;51.508;7.018;2023-05-08T01:52:32;16.90;99.90
13998;DHT22;7074;51.508;7.018;2023-05-08T01:55:03;16.80;99.90
13998;DHT22;7074;51.508;7.018;2023-05-08T01:57:33;16.90;99.90
13998;DHT22;7074;51.508;7.018;2023-05-08T02:00:02;16.80;99.90
13998;DHT22;7074;51.508;7.018;2023-05-08T02:02:37;16.80;99.90
13998;DHT22;7074;51.508;7.018;2023-05-08T02:05:08;16.70;99.90
13998;DHT22;7074;51.508;7.018;2023-05-08T02:07:36;16.60;99.90
13998;DHT22;7074;51.508;7.018;2023-05-08T02:10:05;16.60;99.90
13998;DHT22;7074;51.508;7.018;2023-05-08T02:12:32;16.50;99.90
13998;DHT22;7074;51.508;7.018;2023-05-08T02:15:01;16.50;99.90
13998;DHT22;7074;51.508;7.018;2023-05-08T02:17:29;16.60;99.90
13998;DHT22;7074;51.508;7.018;2023-05-08T02:20:01;16.60;99.90
13998;DHT22;7074;51.508;7.018;2023-05-08T02:22:29;16.60;99.90
13998;DHT22;7074;51.508;7.018;2023-05-08T02:24:57;16.50;99.90
13998;DHT22;7074;51.508;7.018;2023-05-08T02:27:26;16.50;99.90
13998;DHT22;7074;51.508;7.018;2023-05-08T02:29:55;16.50;99.90
13998;DHT22;7074;51.508;7.018;2023-05-08T02:32:24;16.50;99.90
13998;DHT22;7074;51.508;7.018;2023-05-08T02:34:54;16.40;99.90
13998;DHT22;7074;51.508;7.018;2023-05-08T02:37:25;16.40;99.90
13998;DHT22;7074;51.508;7.018;2023-05-08T02:39:55;16.40;99.90
13998;DHT22;7074;51.508;7.018;2023-05-08T02:42:24;16.30;99.90
13998;DHT22;7074;51.508;7.018;2023-05-08T02:44:52;16.20;99.90
13998;DHT22;7074;51.508;7.018;2023-05-08T02:47:22;16.20;99.90
13998;DHT22;7074;51.508;7.018;2023-05-08T02:49:53;16.20;99.90
13998;DHT22;7074;51.508;7.018;2023-05-08T02:52:27;16.10;99.90
13998;DHT22;7074;51.508;7.018;2023-05-08T02:54:57;16.10;99.90
13998;DHT22;7074;51.508;7.018;2023-05-08T02:57:34;16.10;99.90
13998;DHT22;7074;51.508;7.018;2023-05-08T03:00:07;16.20;99.90
13998;DHT22;7074;51.508;7.018;2023-05-08T03:02:40;16.20;99.90
13998;DHT22;7074;51.508;7.018;2023-05-08T03:05:12;16.10;99.90
13998;DHT22;7074;51.508;7.018;2023-05-08T03:07:44;16.10;99.90
13998;DHT22;7074;51.508;7.018;2023-05-08T03:10:14;16.00;99.90
13998;DHT22;7074;51.508;7.018;2023-05-08T03:12:45;16.00;99.90
13998;DHT22;7074;51.508;7.018;2023-05-08T03:15:18;16.00;99.90
13998;DHT22;7074;51.508;7.018;2023-05-08T03:17:53;15.90;99.90
13998;DHT22;7074;51.508;7.018;2023-05-08T03:20:23;15.90;99.90
13998;DHT22;7074;51.508;7.018;2023-05-08T03:22:54;15.80;99.90
13998;DHT22;7074;51.508;7.018;2023-05-08T03:25:23;15.80;99.90
13998;DHT22;7074;51.508;7.018;2023-05-08T03:27:51;15.80;99.90
13998;DHT22;7074;51.508;7.018;2023-05-08T03:30:19;15.80;99.90
13998;DHT22;7074;51.508;7.018;2023-05-08T03:32:57;15.70;99.90
13998;DHT22;7074;51.508;7.018;2023-05-08T03:35:26;15.70;99.90
13998;DHT22;7074;51.508;7.018;2023-05-08T03:37:56;15.70;99.90
13998;DHT22;7074;51.508;7.018;2023-05-08T03:40:24;15.60;99.90
13998;DHT22;7074;51.508;7.018;2023-05-08T03:42:54;15.70;99.90
13998;DHT22;7074;51.508;7.018;2023-05-08T03:45:21;15.60;99.90
13998;DHT22;7074;51.508;7.018;2023-05-08T03:47:50;15.60;99.90
13998;DHT22;7074;51.508;7.018;2023-05-08T03:50:19;15.50;99.90
13998;DHT22;7074;51.508;7.018;2023-05-08T03:52:47;15.50;99.90
13998;DHT22;7074;51.508;7.018;2023-05-08T03:55:16;15.50;99.90
13998;DHT22;7074;51.508;7.018;2023-05-08T03:57:49;15.40;99.90
13998;DHT22;7074;51.508;7.018;2023-05-08T04:00:30;15.40;99.90
13998;DHT22;7074;51.508;7.018;2023-05-08T04:03:09;15.50;99.90
13998;DHT22;7074;51.508;7.018;2023-05-08T04:05:47;15.50;99.90
13998;DHT22;7074;51.508;7.018;2023-05-08T04:08:20;15.60;99.90
13998;DHT22;7074;51.508;7.018;2023-05-08T04:10:56;15.70;99.90
13998;DHT22;7074;51.508;7.018;2023-05-08T04:13:27;15.70;99.90
13998;DHT22;7074;51.508;7.018;2023-05-08T04:16:04;15.60;99.90
13998;DHT22;7074;51.508;7.018;2023-05-08T04:18:35;15.60;99.90
13998;DHT22;7074;51.508;7.018;2023-05-08T04:21:08;15.70;99.90
13998;DHT22;7074;51.508;7.018;2023-05-08T04:23:39;15.70;99.90
13998;DHT22;7074;51.508;7.018;2023-05-08T04:26:09;15.70;99.90
13998;DHT22;7074;51.508;7.018;2023-05-08T04:28:38;15.70;99.90
13998;DHT22;7074;51.508;7.018;2023-05-08T04:31:06;15.70;99.90
13998;DHT22;7074;51.508;7.018;2023-05-08T04:33:34;15.80;99.90
13998;DHT22;7074;51.508;7.018;2023-05-08T04:36:03;15.70;99.90
13998;DHT22;7074;51.508;7.018;2023-05-08T04:38:35;15.70;99.90
13998;DHT22;7074;51.508;7.018;2023-05-08T04:41:03;15.70;99.90
13998;DHT22;7074;51.508;7.018;2023-05-08T04:43:33;15.80;99.90
13998;DHT22;7074;51.508;7.018;2023-05-08T04:46:00;15.80;99.90
13998;DHT22;7074;51.508;7.018;2023-05-08T04:48:29;15.80;99.90
13998;DHT22;7074;51.508;7.018;2023-05-08T04:50:58;15.90;99.90
13998;DHT22;7074;51.508;7.018;2023-05-08T04:53:26;15.90;99.90
13998;DHT22;7074;51.508;7.018;2023-05-08T04:55:53;15.90;99.90
13998;DHT22;7074;51.508;7.018;2023-05-08T04:58:22;15.80;99.90
13998;DHT22;7074;51.508;7.018;2023-05-08T05:00:51;15.90;99.90
13998;DHT22;7074;51.508;7.018;2023-05-08T05:03:19;15.90;99.90
13998;DHT22;7074;51.508;7.018;2023-05-08T05:05:46;15.90;99.90
13998;DHT22;7074;51.508;7.018;2023-05-08T05:08:14;15.90;99.90
13998;DHT22;7074;51.508;7.018;2023-05-08T05:10:41;15.90;99.90
13998;DHT22;7074;51.508;7.018;2023-05-08T05:13:09;15.90;99.90
13998;DHT22;7074;51.508;7.018;2023-05-08T05:15:37;15.90;99.90
13998;DHT22;7074;51.508;7.018;2023-05-08T05:18:09;16.00;99.90
13998;DHT22;7074;51.508;7.018;2023-05-08T05:20:37;16.00;99.90
13998;DHT22;7074;51.508;7.018;2023-05-08T05:23:04;16.00;99.90
13998;DHT22;7074;51.508;7.018;2023-05-08T05:25:31;16.00;99.90
13998;DHT22;7074;51.508;7.018;2023-05-08T05:27:59;16.10;99.90
13998;DHT22;7074;51.508;7.018;2023-05-08T05:30:30;16.10;99.90
13998;DHT22;7074;51.508;7.018;2023-05-08T05:32:57;16.20;99.90
13998;DHT22;7074;51.508;7.018;2023-05-08T05:35:26;16.20;99.90
13998;DHT22;7074;51.508;7.018;2023-05-08T05:37:55;16.30;99.90
13998;DHT22;7074;51.508;7.018;2023-05-08T05:40:22;16.20;99.90
13998;DHT22;7074;51.508;7.018;2023-05-08T05:42:50;16.30;99.90
13998;DHT22;7074;51.508;7.018;2023-05-08T05:45:18;16.30;99.90
13998;DHT22;7074;51.508;7.018;2023-05-08T05:47:46;16.40;99.90
13998;DHT22;7074;51.508;7.018;2023-05-08T05:50:16;16.40;99.90
13998;DHT22;7074;51.508;7.018;2023-05-08T05:52:46;16.40;99.90
13998;DHT22;7074;51.508;7.018;2023-05-08T05:55:13;16.50;99.90
13998;DHT22;7074;51.508;7.018;2023-05-08T05:57:41;16.50;99.90
13998;DHT22;7074;51.508;7.018;2023-05-08T06:00:08;16.50;99.90
13998;DHT22;7074;51.508;7.018;2023-05-08T06:02:44;16.60;99.90
13998;DHT22;7074;51.508;7.018;2023-05-08T06:05:14;16.70;99.90
13998;DHT22;7074;51.508;7.018;2023-05-08T06:07:41;16.70;99.90
13998;DHT22;7074;51.508;7.018;2023-05-08T06:10:10;16.80;99.90
13998;DHT22;7074;51.508;7.018;2023-05-08T06:12:38;16.80;99.90
13998;DHT22;7074;51.508;7.018;2023-05-08T06:15:06;16.90;99.90
13998;DHT22;7074;51.508;7.018;2023-05-08T06:17:34;16.90;99.90
13998;DHT22;7074;51.508;7.018;2023-05-08T06:20:02;17.00;99.90
13998;DHT22;7074;51.508;7.018;2023-05-08T06:22:29;17.10;99.90
13998;DHT22;7074;51.508;7.018;2023-05-08T06:24:56;17.10;99.90
13998;DHT22;7074;51.508;7.018;2023-05-08T06:27:25;17.10;99.90
13998;DHT22;7074;51.508;7.018;2023-05-08T06:29:52;17.10;99.90
13998;DHT22;7074;51.508;7.018;2023-05-08T06:32:20;17.20;99.90
13998;DHT22;7074;51.508;7.018;2023-05-08T06:34:47;17.20;99.90
13998;DHT22;7074;51.508;7.018;2023-05-08T06:37:15;17.20;99.90
13998;DHT22;7074;51.508;7.018;2023-05-08T06:39:42;17.20;99.90
13998;DHT22;7074;51.508;7.018;2023-05-08T06:42:09;17.30;99.90
13998;DHT22;7074;51.508;7.018;2023-05-08T06:44:40;17.30;99.90
13998;DHT22;7074;51.508;7.018;2023-05-08T06:47:07;17.40;99.90
13998;DHT22;7074;51.508;7.018;2023-05-08T06:49:35;17.50;99.90
13998;DHT22;7074;51.508;7.018;2023-05-08T06:52:02;17.60;99.90
13998;DHT22;7074;51.508;7.018;2023-05-08T06:54:29;17.60;99.90
13998;DHT22;7074;51.508;7.018;2023-05-08T06:56:57;17.60;99.90
13998;DHT22;7074;51.508;7.018;2023-05-08T06:59:24;17.70;99.90
13998;DHT22;7074;51.508;7.018;2023-05-08T07:01:53;17.70;99.90
13998;DHT22;7074;51.508;7.018;2023-05-08T07:04:20;17.90;99.90
13998;DHT22;7074;51.508;7.018;2023-05-08T07:06:48;17.90;99.90
13998;DHT22;7074;51.508;7.018;2023-05-08T07:09:15;18.00;99.90
13998;DHT22;7074;51.508;7.018;2023-05-08T07:11:42;18.10;99.90
13998;DHT22;7074;51.508;7.018;2023-05-08T07:14:10;18.20;99.90
13998;DHT22;7074;51.508;7.018;2023-05-08T07:16:37;18.30;99.90
13998;DHT22;7074;51.508;7.018;2023-05-08T07:19:06;18.40;99.90
13998;DHT22;7074;51.508;7.018;2023-05-08T07:21:33;18.40;99.90
13998;DHT22;7074;51.508;7.018;2023-05-08T07:24:00;18.50;99.90
13998;DHT22;7074;51.508;7.018;2023-05-08T07:26:27;18.60;99.90
13998;DHT22;7074;51.508;7.018;2023-05-08T07:28:55;18.60;99.90
13998;DHT22;7074;51.508;7.018;2023-05-08T07:31:22;18.70;99.90
13998;DHT22;7074;51.508;7.018;2023-05-08T07:33:50;18.70;99.90
13998;DHT22;7074;51.508;7.018;2023-05-08T07:36:18;18.80;99.90
13998;DHT22;7074;51.508;7.018;2023-05-08T07:38:46;18.90;99.90
13998;DHT22;7074;51.508;7.018;2023-05-08T07:41:13;18.90;99.90
13998;DHT22;7074;51.508;7.018;2023-05-08T07:43:41;18.90;99.90
13998;DHT22;7074;51.508;7.018;2023-05-08T07:46:16;19.00;99.90
13998;DHT22;7074;51.508;7.018;2023-05-08T07:48:43;19.20;99.90
13998;DHT22;7074;51.508;7.018;2023-05-08T07:51:11;19.30;99.90
13998;DHT22;7074;51.508;7.018;2023-05-08T07:53:40;19.40;99.90
13998;DHT22;7074;51.508;7.018;2023-05-08T07:56:07;19.50;99.90
13998;DHT22;7074;51.508;7.018;2023-05-08T07:58:35;19.40;99.90
13998;DHT22;7074;51.508;7.018;2023-05-08T08:01:02;19.70;99.90
13998;DHT22;7074;51.508;7.018;2023-05-08T08:03:29;19.80;99.90
13998;DHT22;7074;51.508;7.018;2023-05-08T08:05:56;19.80;99.90
13998;DHT22;7074;51.508;7.018;2023-05-08T08:08:24;19.90;99.90
13998;DHT22;7074;51.508;7.018;2023-05-08T08:10:53;19.90;99.90
13998;DHT22;7074;51.508;7.018;2023-05-08T08:13:20;20.00;99.90
13998;DHT22;7074;51.508;7.018;2023-05-08T08:15:47;20.10;99.90
13998;DHT22;7074;51.508;7.018;2023-05-08T08:18:15;20.20;99.90
13998;DHT22;7074;51.508;7.018;2023-05-08T08:20:42;20.30;99.90
13998;DHT22;7074;51.508;7.018;2023-05-08T08:23:09;20.30;99.90
13998;DHT22;7074;51.508;7.018;2023-05-08T08:25:36;20.40;99.90
13998;DHT22;7074;51.508;7.018;2023-05-08T08:28:05;20.30;99.90
13998;DHT22;7074;51.508;7.018;2023-05-08T08:30:32;20.40;99.90
13998;DHT22;7074;51.508;7.018;2023-05-08T08:33:00;20.60;99.90
13998;DHT22;7074;51.508;7.018;2023-05-08T08:35:27;20.60;99.90
13998;DHT22;7074;51.508;7.018;2023-05-08T08:37:55;20.70;99.90
13998;DHT22;7074;51.508;7.018;2023-05-08T08:40:22;20.70;99.90
13998;DHT22;7074;51.508;7.018;2023-05-08T08:42:50;20.70;99.90
13998;DHT22;7074;51.508;7.018;2023-05-08T08:45:19;20.80;99.90
13998;DHT22;7074;51.508;7.018;2023-05-08T08:47:47;20.90;99.90
13998;DHT22;7074;51.508;7.018;2023-05-08T08:50:19;21.00;99.90
13998;DHT22;7074;51.508;7.018;2023-05-08T08:52:53;21.00;99.90
13998;DHT22;7074;51.508;7.018;2023-05-08T08:55:22;21.10;99.90
13998;DHT22;7074;51.508;7.018;2023-05-08T08:57:58;21.10;99.90
13998;DHT22;7074;51.508;7.018;2023-05-08T09:00:29;21.10;99.90
13998;DHT22;7074;51.508;7.018;2023-05-08T09:02:57;21.20;99.90
13998;DHT22;7074;51.508;7.018;2023-05-08T09:05:25;21.30;99.90
13998;DHT22;7074;51.508;7.018;2023-05-08T09:07:54;21.40;99.90
13998;DHT22;7074;51.508;7.018;2023-05-08T09:10:22;21.40;99.90
13998;DHT22;7074;51.508;7.018;2023-05-08T09:12:50;21.40;99.90
13998;DHT22;7074;51.508;7.018;2023-05-08T09:15:18;21.40;99.90
13998;DHT22;7074;51.508;7.018;2023-05-08T09:17:46;21.10;99.90
13998;DHT22;7074;51.508;7.018;2023-05-08T09:20:14;21.20;99.90
13998;DHT22;7074;51.508;7.018;2023-05-08T09:22:42;21.30;99.90
13998;DHT22;7074;51.508;7.018;2023-05-08T09:25:22;21.40;99.90
13998;DHT22;7074;51.508;7.018;2023-05-08T09:27:49;21.20;99.90
13998;DHT22;7074;51.508;7.018;2023-05-08T09:30:17;21.30;99.90
13998;DHT22;7074;51.508;7.018;2023-05-08T09:32:45;21.00;99.90
13998;DHT22;7074;51.508;7.018;2023-05-08T09:35:12;21.20;99.90
13998;DHT22;7074;51.508;7.018;2023-05-08T09:37:41;21.20;99.90
13998;DHT22;7074;51.508;7.018;2023-05-08T09:40:13;21.30;99.90
13998;DHT22;7074;51.508;7.018;2023-05-08T09:42:40;21.50;99.90
13998;DHT22;7074;51.508;7.018;2023-05-08T09:45:08;21.50;99.90
13998;DHT22;7074;51.508;7.018;2023-05-08T09:47:36;21.50;99.90
13998;DHT22;7074;51.508;7.018;2023-05-08T09:50:07;21.50;99.90
13998;DHT22;7074;51.508;7.018;2023-05-08T09:52:37;21.50;99.90
13998;DHT22;7074;51.508;7.018;2023-05-08T09:55:05;21.50;99.90
13998;DHT22;7074;51.508;7.018;2023-05-08T09:57:35;21.50;99.90
13998;DHT22;7074;51.508;7.018;2023-05-08T10:00:05;21.50;99.90
13998;DHT22;7074;51.508;7.018;2023-05-08T10:02:37;21.50;99.90
13998;DHT22;7074;51.508;7.018;2023-05-08T10:05:22;21.60;99.90
13998;DHT22;7074;51.508;7.018;2023-05-08T10:07:50;21.60;99.90
13998;DHT22;7074;51.508;7.018;2023-05-08T10:10:22;21.60;99.90
13998;DHT22;7074;51.508;7.018;2023-05-08T10:12:51;21.60;99.90
13998;DHT22;7074;51.508;7.018;2023-05-08T10:15:19;21.70;99.90
13998;DHT22;7074;51.508;7.018;2023-05-08T10:17:52;21.70;99.90
13998;DHT22;7074;51.508;7.018;2023-05-08T10:20:22;21.70;99.90
13998;DHT22;7074;51.508;7.018;2023-05-08T10:22:52;21.80;99.90
13998;DHT22;7074;51.508;7.018;2023-05-08T10:25:23;21.70;99.90
13998;DHT22;7074;51.508;7.018;2023-05-08T10:27:54;21.80;99.90
13998;DHT22;7074;51.508;7.018;2023-05-08T10:30:26;21.90;99.90
13998;DHT22;7074;51.508;7.018;2023-05-08T10:32:53;21.90;99.90
13998;DHT22;7074;51.508;7.018;2023-05-08T10:35:25;21.90;99.90
13998;DHT22;7074;51.508;7.018;2023-05-08T10:37:53;21.90;99.90
13998;DHT22;7074;51.508;7.018;2023-05-08T10:40:21;21.90;99.90
13998;DHT22;7074;51.508;7.018;2023-05-08T10:42:49;21.90;99.90
13998;DHT22;7074;51.508;7.018;2023-05-08T10:45:17;21.80;99.90
13998;DHT22;7074;51.508;7.018;2023-05-08T10:48:07;21.80;99.90
13998;DHT22;7074;51.508;7.018;2023-05-08T10:50:46;21.80;99.90
13998;DHT22;7074;51.508;7.018;2023-05-08T10:53:21;21.90;99.90
13998;DHT22;7074;51.508;7.018;2023-05-08T10:55:51;21.60;99.90
13998;DHT22;7074;51.508;7.018;2023-05-08T10:58:28;21.60;99.90
13998;DHT22;7074;51.508;7.018;2023-05-08T11:01:15;21.80;99.90
13998;DHT22;7074;51.508;7.018;2023-05-08T11:03:44;21.90;99.90
13998;DHT22;7074;51.508;7.018;2023-05-08T11:06:13;22.00;99.90
13998;DHT22;7074;51.508;7.018;2023-05-08T11:08:49;22.00;99.90
13998;DHT22;7074;51.508;7.018;2023-05-08T11:11:22;22.00;99.90
13998;DHT22;7074;51.508;7.018;2023-05-08T11:13:55;22.00;99.90
13998;DHT22;7074;51.508;7.018;2023-05-08T11:19:35;22.00;99.90
13998;DHT22;7074;51.508;7.018;2023-05-08T11:22:21;22.00;99.90
13998;DHT22;7074;51.508;7.018;2023-05-08T11:24:53;21.90;99.90
13998;DHT22;7074;51.508;7.018;2023-05-08T11:27:38;22.10;99.90
13998;DHT22;7074;51.508;7.018;2023-05-08T11:30:19;22.20;99.90
13998;DHT22;7074;51.508;7.018;2023-05-08T11:33:15;22.20;99.90
13998;DHT22;7074;51.508;7.018;2023-05-08T11:35:48;22.30;99.90
13998;DHT22;7074;51.508;7.018;2023-05-08T11:38:24;22.30;99.90
13998;DHT22;7074;51.508;7.018;2023-05-08T11:41:02;22.30;99.90
13998;DHT22;7074;51.508;7.018;2023-05-08T11:46:41;22.40;99.90
13998;DHT22;7074;51.508;7.018;2023-05-08T11:49:10;22.50;99.90
13998;DHT22;7074;51.508;7.018;2023-05-08T11:51:39;22.50;99.90
13998;DHT22;7074;51.508;7.018;2023-05-08T11:54:12;22.60;99.90
13998;DHT22;7074;51.508;7.018;2023-05-08T11:56:40;22.70;99.90
13998;DHT22;7074;51.508;7.018;2023-05-08T11:59:08;22.60;99.90
13998;DHT22;7074;51.508;7.018;2023-05-08T12:01:36;22.70;99.90
13998;DHT22;7074;51.508;7.018;2023-05-08T12:04:04;22.40;99.90
13998;DHT22;7074;51.508;7.018;2023-05-08T12:06:33;22.60;99.90
13998;DHT22;7074;51.508;7.018;2023-05-08T12:09:01;22.60;99.90
13998;DHT22;7074;51.508;7.018;2023-05-08T12:11:31;22.40;99.90
13998;DHT22;7074;51.508;7.018;2023-05-08T12:13:59;22.30;99.90
13998;DHT22;7074;51.508;7.018;2023-05-08T12:16:26;22.30;99.90
13998;DHT22;7074;51.508;7.018;2023-05-08T12:18:56;22.40;99.90
13998;DHT22;7074;51.508;7.018;2023-05-08T12:21:23;22.50;99.90
13998;DHT22;7074;51.508;7.018;2023-05-08T12:23:53;22.50;99.90
13998;DHT22;7074;51.508;7.018;2023-05-08T12:26:21;22.50;99.90
13998;DHT22;7074;51.508;7.018;2023-05-08T12:28:54;22.50;99.90
13998;DHT22;7074;51.508;7.018;2023-05-08T12:31:22;22.80;99.90
13998;DHT22;7074;51.508;7.018;2023-05-08T12:33:49;22.80;99.90
13998;DHT22;7074;51.508;7.018;2023-05-08T12:36:17;22.80;99.90
13998;DHT22;7074;51.508;7.018;2023-05-08T12:38:44;22.90;99.90
13998;DHT22;7074;51.508;7.018;2023-05-08T12:41:12;23.00;99.90
13998;DHT22;7074;51.508;7.018;2023-05-08T12:43:39;23.00;99.90
13998;DHT22;7074;51.508;7.018;2023-05-08T12:46:10;23.00;99.90
13998;DHT22;7074;51.508;7.018;2023-05-08T12:48:42;23.00;99.90
13998;DHT22;7074;51.508;7.018;2023-05-08T12:51:10;23.00;99.90
13998;DHT22;7074;51.508;7.018;2023-05-08T12:53:37;23.00;99.90
13998;DHT22;7074;51.508;7.018;2023-05-08T12:56:05;23.10;99.90
13998;DHT22;7074;51.508;7.018;2023-05-08T12:58:33;23.10;99.90
13998;DHT22;7074;51.508;7.018;2023-05-08T13:01:09;23.00;99.90
13998;DHT22;7074;51.508;7.018;2023-05-08T13:03:38;23.20;99.90
13998;DHT22;7074;51.508;7.018;2023-05-08T13:06:06;23.20;99.90
13998;DHT22;7074;51.508;7.018;2023-05-08T13:08:35;23.30;99.90
13998;DHT22;7074;51.508;7.018;2023-05-08T13:11:03;23.30;99.90
13998;DHT22;7074;51.508;7.018;2023-05-08T13:13:33;23.30;99.90
13998;DHT22;7074;51.508;7.018;2023-05-08T13:16:02;23.40;99.90
13998;DHT22;7074;51.508;7.018;2023-05-08T13:18:31;23.40;99.90
13998;DHT22;7074;51.508;7.018;2023-05-08T13:21:00;23.20;99.90
13998;DHT22;7074;51.508;7.018;2023-05-08T13:23:28;22.80;99.90
13998;DHT22;7074;51.508;7.018;2023-05-08T13:25:55;22.50;99.90
13998;DHT22;7074;51.508;7.018;2023-05-08T13:28:22;22.80;99.90
13998;DHT22;7074;51.508;7.018;2023-05-08T13:30:49;22.70;99.90
13998;DHT22;7074;51.508;7.018;2023-05-08T13:33:17;22.90;99.90
13998;DHT22;7074;51.508;7.018;2023-05-08T13:35:46;23.00;99.90
13998;DHT22;7074;51.508;7.018;2023-05-08T13:38:14;23.10;99.90
13998;DHT22;7074;51.508;7.018;2023-05-08T13:40:41;23.10;99.90
13998;DHT22;7074;51.508;7.018;2023-05-08T13:43:08;23.00;99.90
13998;DHT22;7074;51.508;7.018;2023-05-08T13:45:36;23.00;99.90
13998;DHT22;7074;51.508;7.018;2023-05-08T13:48:03;23.10;99.90
13998;DHT22;7074;51.508;7.018;2023-05-08T13:50:30;23.30;99.90
13998;DHT22;7074;51.508;7.018;2023-05-08T13:52:59;23.30;99.90
13998;DHT22;7074;51.508;7.018;2023-05-08T13:55:26;23.50;99.90
13998;DHT22;7074;51.508;7.018;2023-05-08T13:57:53;23.60;99.90
13998;DHT22;7074;51.508;7.018;2023-05-08T14:00:21;23.60;99.90
13998;DHT22;7074;51.508;7.018;2023-05-08T14:02:48;23.80;99.90
13998;DHT22;7074;51.508;7.018;2023-05-08T14:05:15;23.70;99.90
13998;DHT22;7074;51.508;7.018;2023-05-08T14:07:42;23.80;99.90
13998;DHT22;7074;51.508;7.018;2023-05-08T14:10:12;23.90;99.90
13998;DHT22;7074;51.508;7.018;2023-05-08T14:12:41;24.20;99.90
13998;DHT22;7074;51.508;7.018;2023-05-08T14:15:09;24.30;99.90
13998;DHT22;7074;51.508;7.018;2023-05-08T14:17:37;24.50;99.90
13998;DHT22;7074;51.508;7.018;2023-05-08T14:20:05;24.50;99.90
13998;DHT22;7074;51.508;7.018;2023-05-08T14:22:32;24.90;99.90
13998;DHT22;7074;51.508;7.018;2023-05-08T14:25:00;24.70;99.90
13998;DHT22;7074;51.508;7.018;2023-05-08T14:27:29;25.00;99.90
13998;DHT22;7074;51.508;7.018;2023-05-08T14:29:56;25.10;99.90
13998;DHT22;7074;51.508;7.018;2023-05-08T14:32:23;25.10;99.90
13998;DHT22;7074;51.508;7.018;2023-05-08T14:34:50;25.20;99.90
13998;DHT22;7074;51.508;7.018;2023-05-08T14:37:18;25.30;99.90
13998;DHT22;7074;51.508;7.018;2023-05-08T14:39:45;25.40;99.90
13998;DHT22;7074;51.508;7.018;2023-05-08T14:42:12;25.60;99.90
13998;DHT22;7074;51.508;7.018;2023-05-08T14:44:56;25.60;99.90
13998;DHT22;7074;51.508;7.018;2023-05-08T14:47:40;25.70;99.90
13998;DHT22;7074;51.508;7.018;2023-05-08T14:50:28;25.60;99.90
13998;DHT22;7074;51.508;7.018;2023-05-08T14:53:00;25.20;99.90
13998;DHT22;7074;51.508;7.018;2023-05-08T14:55:30;25.30;99.90
13998;DHT22;7074;51.508;7.018;2023-05-08T14:58:01;25.30;99.90
13998;DHT22;7074;51.508;7.018;2023-05-08T15:00:30;25.40;99.90
13998;DHT22;7074;51.508;7.018;2023-05-08T15:02:57;25.50;99.90
13998;DHT22;7074;51.508;7.018;2023-05-08T15:05:25;25.50;99.90
13998;DHT22;7074;51.508;7.018;2023-05-08T15:07:52;25.30;99.90
13998;DHT22;7074;51.508;7.018;2023-05-08T15:10:19;25.30;99.30
13998;DHT22;7074;51.508;7.018;2023-05-08T15:12:47;25.50;98.70
13998;DHT22;7074;51.508;7.018;2023-05-08T15:15:14;25.40;98.50
13998;DHT22;7074;51.508;7.018;2023-05-08T15:17:43;25.40;99.20
13998;DHT22;7074;51.508;7.018;2023-05-08T15:20:11;25.50;99.60
13998;DHT22;7074;51.508;7.018;2023-05-08T15:22:38;25.60;99.90
13998;DHT22;7074;51.508;7.018;2023-05-08T15:25:06;25.60;99.90
13998;DHT22;7074;51.508;7.018;2023-05-08T15:27:33;25.60;99.90
13998;DHT22;7074;51.508;7.018;2023-05-08T15:30:01;25.40;99.90
13998;DHT22;7074;51.508;7.018;2023-05-08T15:32:28;25.40;99.90
13998;DHT22;7074;51.508;7.018;2023-05-08T15:34:57;25.30;99.40
13998;DHT22;7074;51.508;7.018;2023-05-08T15:37:24;25.40;99.90
13998;DHT22;7074;51.508;7.018;2023-05-08T15:39:51;25.40;99.60
13998;DHT22;7074;51.508;7.018;2023-05-08T15:42:19;25.20;99.80
13998;DHT22;7074;51.508;7.018;2023-05-08T15:44:46;24.90;99.90
13998;DHT22;7074;51.508;7.018;2023-05-08T15:47:13;24.80;99.90
13998;DHT22;7074;51.508;7.018;2023-05-08T15:49:41;24.60;99.90
13998;DHT22;7074;51.508;7.018;2023-05-08T15:52:09;24.50;99.90
13998;DHT22;7074;51.508;7.018;2023-05-08T15:54:37;24.50;99.90
13998;DHT22;7074;51.508;7.018;2023-05-08T15:57:04;24.60;99.90
13998;DHT22;7074;51.508;7.018;2023-05-08T15:59:31;24.60;99.90
13998;DHT22;7074;51.508;7.018;2023-05-08T16:01:58;24.60;99.90
13998;DHT22;7074;51.508;7.018;2023-05-08T16:04:26;24.60;99.90
13998;DHT22;7074;51.508;7.018;2023-05-08T16:06:53;24.50;99.90
13998;DHT22;7074;51.508;7.018;2023-05-08T16:09:22;24.40;99.90